Ardmore, OK (73401)

6:03 PM CDT on May 30, 2015 (GMT -0500)
Ardmore Weather Live | | Change Station
CLOSE
Current Station
Personal Weather Station
Location: Ardmore, Ok
Elevation: 810 ft
Nearby Weather Stations
Active Advisory: Flood Warning

Elev 810 ft 34.15 °N, 97.11 °W | Updated 6 seconds ago

Mostly Cloudy
Mostly Cloudy
73.3 °F
Feels Like 75 °F
N
3.5
Wind Variable Wind from NNW
Gusts 6.9 mph

Today
High -- | Low -- °F
--% Chance of Precip.
Yesterday
High -- | Low -- °F
Precip. -- in
6:18 AM 8:33 PM
Waxing Gibbous, 92% visible
Pressure 30.08 in
Visibility -9999.0 miles
Clouds Scattered Clouds 2900 ft
Mostly Cloudy 4200 ft
Heat Index 75 °F
Dew Point 63 °F
Humidity 70%
Rainfall 0.29 in
Snow Depth Not available.
UV 0.7 out of 12
Pollen 1.60 out of 12
Air Quality Not available.
Flu Activity Sporadic
METAR K1F0 302230Z AUTO 35004KT SCT029 BKN042 22/15 A3008 RMK AO2 PWINO

More Conditions Fewer Conditions

Pressure 30.08 in
Visibility -9999.0 miles
Clouds Scattered Clouds 2900 ft
Mostly Cloudy 4200 ft
Heat Index 75 °F
Dew Point 63 °F
Humidity 70%
Rainfall 0.29 in
Snow Depth Not available.
UV 0.7 out of 12
Pollen 1.60 out of 12
Air Quality Not available.
Flu Activity Sporadic
METAR K1F0 302230Z AUTO 35004KT SCT029 BKN042 22/15 A3008 RMK AO2 PWINO

More Conditions Fewer Conditions

10-Day Weather Forecast

Almanac

Astronomy

May. 30, 2015 Rise Set
Actual Time
Civil Twilight
Nautical Twilight
Astronomical Twilight
Moon
Length of Visible Light
Length of Day
Tomorrow will be .
, % of the Moon is Illuminated

Today's Extremes

State Highs State Lows

Community

WunderPhotos

Upload Photos

1,825,594 photos uploaded!

WunderBlogs® & News

Nearby

Air Quality

  Air Quality AQ Index Pollutant
Not available.

Snow Depth

Station Depth Elevation

Earthquake Activity

City Distance Mag. Time & Date
Minimum magnitude displayed is 2.5.

Coastal Water Temperatures

Place Temperature

Stations

Nearby Weather Stations

Station Location Temp. Windchill Dew Point Humidity Wind Precip. Elev Updated Type
                   
Flood Warning
Statement as of 2:31 PM CDT on May 30, 2015

The Flood Warning continues for
the Washita river near Dickson.

* Until Tuesday evening... or until the warning is cancelled.

* At 1:30 PM Saturday the stage was 34.8 feet.

* Major flooding is occurring.

* Flood stage is 27.0 feet.

* Forecast... the Washita river has crested and will continue to fall.
The Washita river will fall below flood stage early Tuesday
afternoon.



Lat... Lon 3451 9720 3451 9710 3427 9694 3426 9670
      3418 9670 3418 9700